createdAt,value
2023-04-15T00:00:14.254Z,3.30
2023-04-15T00:02:45.867Z,3.63
2023-04-15T00:05:17.464Z,3.03
2023-04-15T00:07:48.918Z,4.22
2023-04-15T00:10:20.645Z,3.95
2023-04-15T00:12:52.126Z,4.57
2023-04-15T00:15:24.104Z,3.65
2023-04-15T00:17:55.584Z,4.43
2023-04-15T00:20:27.282Z,3.90
2023-04-15T00:22:58.756Z,4.35
2023-04-15T00:25:30.573Z,4.40
2023-04-15T00:28:02.038Z,4.47
2023-04-15T00:30:33.952Z,4.15
2023-04-15T00:33:05.753Z,4.40
2023-04-15T00:35:37.220Z,3.35
2023-04-15T00:38:09.098Z,4.30
2023-04-15T00:40:40.553Z,4.28
2023-04-15T00:43:12.433Z,3.95
2023-04-15T00:45:43.886Z,4.40
2023-04-15T00:48:15.841Z,4.22
2023-04-15T00:50:47.313Z,4.95
2023-04-15T00:53:19.258Z,4.93
2023-04-15T00:55:50.720Z,4.33
2023-04-15T00:58:22.535Z,4.70
2023-04-15T01:00:54.029Z,4.53
2023-04-15T01:03:25.953Z,5.57
2023-04-15T01:05:57.625Z,4.43
2023-04-15T01:08:29.501Z,5.07
2023-04-15T01:11:00.950Z,5.05
2023-04-15T01:13:32.858Z,4.68
2023-04-15T01:16:04.355Z,5.03
2023-04-15T01:18:36.086Z,4.97
2023-04-15T01:21:07.570Z,4.90
2023-04-15T01:23:39.604Z,5.45
2023-04-15T01:26:11.123Z,5.47
2023-04-15T01:28:42.850Z,6.32
2023-04-15T01:31:14.319Z,4.03
2023-04-15T01:33:45.788Z,5.22
2023-04-15T01:36:17.262Z,4.93
2023-04-15T01:38:49.128Z,5.32
2023-04-15T01:41:20.601Z,4.85
2023-04-15T01:43:52.072Z,5.38
2023-04-15T01:46:23.553Z,5.53
2023-04-15T01:48:55.038Z,4.68
2023-04-15T01:51:26.495Z,5.97
2023-04-15T01:53:57.967Z,5.20
2023-04-15T01:56:29.423Z,4.90
2023-04-15T01:59:01.514Z,5.75
2023-04-15T02:01:33.452Z,5.57
2023-04-15T02:04:05.363Z,4.85
2023-04-15T02:06:36.860Z,5.30
2023-04-15T02:09:08.689Z,5.55
2023-04-15T02:11:40.154Z,5.55
2023-04-15T02:14:12.108Z,5.15
2023-04-15T02:16:43.629Z,5.93
2023-04-15T02:19:15.427Z,6.30
2023-04-15T02:21:46.908Z,5.82
2023-04-15T02:24:18.733Z,5.82
2023-04-15T02:26:50.184Z,5.45
2023-04-15T02:29:22.021Z,4.97
2023-04-15T02:31:53.538Z,5.50
2023-04-15T02:34:25.048Z,5.38
2023-04-15T02:36:56.502Z,6.05
2023-04-15T02:39:28.189Z,5.38
2023-04-15T02:41:59.638Z,5.43
2023-04-15T02:44:31.266Z,5.90
2023-04-15T02:47:03.054Z,5.70
2023-04-15T02:49:34.601Z,6.95
2023-04-15T02:52:06.428Z,5.93
2023-04-15T02:54:37.885Z,4.78
2023-04-15T02:57:09.640Z,5.72
2023-04-15T02:59:41.091Z,6.03
2023-04-15T03:02:12.843Z,7.22
2023-04-15T03:04:44.393Z,6.32
2023-04-15T03:07:16.186Z,6.10
2023-04-15T03:09:47.636Z,4.30
2023-04-15T03:12:19.374Z,5.68
2023-04-15T03:14:50.852Z,5.18
2023-04-15T03:17:22.876Z,5.10
2023-04-15T03:19:54.621Z,5.07
2023-04-15T03:22:26.383Z,5.72
2023-04-15T03:24:57.886Z,6.63
2023-04-15T03:27:29.701Z,5.50
2023-04-15T03:30:01.181Z,6.07
2023-04-15T03:32:32.871Z,5.38
2023-04-15T03:35:04.375Z,4.40
2023-04-15T03:37:36.040Z,5.00
2023-04-15T03:40:07.522Z,5.78
2023-04-15T03:42:39.000Z,6.20
2023-04-15T03:45:10.468Z,5.78
2023-04-15T03:47:42.133Z,5.68
2023-04-15T03:50:13.629Z,6.35
2023-04-15T03:52:45.536Z,5.53
2023-04-15T03:55:17.019Z,4.32
2023-04-15T03:57:48.840Z,4.68
2023-04-15T04:00:20.281Z,5.00
2023-04-15T04:02:51.891Z,5.75
2023-04-15T04:05:23.508Z,4.97
2023-04-15T04:07:55.016Z,5.25
2023-04-15T04:10:26.494Z,5.82
2023-04-15T04:12:58.224Z,6.05
2023-04-15T04:15:29.704Z,5.20
2023-04-15T04:18:01.579Z,5.25
2023-04-15T04:20:33.111Z,5.03
2023-04-15T04:23:05.010Z,4.70
2023-04-15T04:25:36.456Z,4.43
2023-04-15T04:28:07.961Z,4.22
2023-04-15T04:30:39.922Z,4.45
2023-04-15T04:33:11.371Z,4.80
2023-04-15T04:35:43.114Z,4.50
2023-04-15T04:38:14.587Z,4.32
2023-04-15T04:40:46.475Z,4.65
2023-04-15T04:43:17.942Z,5.65
2023-04-15T04:45:49.439Z,4.80
2023-04-15T04:48:20.921Z,5.28
2023-04-15T04:50:52.387Z,5.38
2023-04-15T04:53:23.816Z,5.18
2023-04-15T04:55:55.275Z,4.93
2023-04-15T04:58:26.742Z,5.05
2023-04-15T05:00:58.622Z,3.78
2023-04-15T05:03:30.185Z,3.65
2023-04-15T05:06:02.200Z,4.68
2023-04-15T05:08:33.656Z,4.18
2023-04-15T05:11:05.166Z,4.82
2023-04-15T05:13:36.620Z,4.15
2023-04-15T05:16:08.321Z,4.43
2023-04-15T05:18:39.829Z,3.80
2023-04-15T05:21:11.277Z,4.88
2023-04-15T05:23:42.748Z,3.95
2023-04-15T05:26:14.591Z,4.03
2023-04-15T05:28:46.047Z,4.10
2023-04-15T05:31:17.918Z,3.65
2023-04-15T05:33:49.417Z,4.05
2023-04-15T05:36:21.218Z,3.95
2023-04-15T05:38:52.679Z,3.90
2023-04-15T05:41:24.133Z,2.97
2023-04-15T05:43:55.591Z,3.80
2023-04-15T05:46:27.406Z,3.42
2023-04-15T05:48:58.932Z,3.70
2023-04-15T05:51:30.747Z,3.00
2023-04-15T05:54:02.196Z,2.97
2023-04-15T05:56:33.709Z,3.58
2023-04-15T05:59:07.924Z,3.53
2023-04-15T06:01:39.853Z,3.15
2023-04-15T06:04:14.241Z,2.85
2023-04-15T06:06:46.110Z,2.58
2023-04-15T06:09:17.647Z,3.17
2023-04-15T06:11:49.524Z,2.53
2023-04-15T06:14:21.050Z,2.83
2023-04-15T06:16:52.780Z,2.72
2023-04-15T06:19:24.361Z,3.38
2023-04-15T06:21:55.843Z,2.80
2023-04-15T06:24:27.294Z,2.90
2023-04-15T06:26:59.181Z,2.95
2023-04-15T06:29:30.624Z,2.95
2023-04-15T06:32:02.450Z,3.00
2023-04-15T06:34:33.917Z,2.65
2023-04-15T06:37:06.330Z,3.08
2023-04-15T06:39:37.893Z,2.83
2023-04-15T06:42:09.673Z,3.22
2023-04-15T06:44:41.120Z,2.80
2023-04-15T06:47:12.875Z,2.72
2023-04-15T06:49:44.630Z,2.22
2023-04-15T06:52:16.096Z,2.63
2023-04-15T06:54:47.819Z,3.00
2023-04-15T06:57:19.272Z,3.10
2023-04-15T06:59:50.734Z,2.53
2023-04-15T07:02:22.322Z,2.75
2023-04-15T07:04:53.846Z,3.08
2023-04-15T07:07:25.307Z,2.92
2023-04-15T07:09:56.804Z,2.65
2023-04-15T07:12:28.308Z,2.50
2023-04-15T07:14:59.968Z,2.60
2023-04-15T07:17:31.494Z,2.40
2023-04-15T07:20:03.365Z,2.67
2023-04-15T07:22:34.840Z,2.75
2023-04-15T07:25:06.751Z,2.78
2023-04-15T07:27:38.250Z,2.47
2023-04-15T07:30:10.076Z,2.67
2023-04-15T07:32:41.555Z,2.63
2023-04-15T07:35:13.042Z,2.83
2023-04-15T07:37:44.517Z,2.92
2023-04-15T07:40:16.348Z,2.47
2023-04-15T07:42:47.798Z,2.80
2023-04-15T07:45:21.017Z,3.17
2023-04-15T07:47:52.621Z,2.63
2023-04-15T07:50:24.528Z,3.00
2023-04-15T07:52:56.015Z,3.42
2023-04-15T07:55:28.369Z,3.28
2023-04-15T07:57:59.867Z,2.92
2023-04-15T08:00:31.942Z,2.70
2023-04-15T08:03:03.596Z,3.10
2023-04-15T08:05:35.541Z,3.92
2023-04-15T08:08:06.991Z,3.28
2023-04-15T08:10:38.733Z,3.35
2023-04-15T08:13:10.196Z,2.45
2023-04-15T08:15:41.996Z,3.17
2023-04-15T08:18:13.486Z,2.88
2023-04-15T08:20:45.295Z,2.67
2023-04-15T08:23:16.737Z,2.85
2023-04-15T08:25:48.188Z,2.92
2023-04-15T08:28:20.258Z,2.87
2023-04-15T08:30:51.699Z,3.25
2023-04-15T08:33:23.152Z,2.45
2023-04-15T08:35:54.623Z,2.78
2023-04-15T08:38:26.059Z,3.20
2023-04-15T08:40:57.701Z,3.30
2023-04-15T08:43:29.158Z,2.40
2023-04-15T08:46:00.625Z,3.40
2023-04-15T08:48:32.081Z,3.40
2023-04-15T08:51:03.809Z,3.35
2023-04-15T08:53:35.254Z,3.22
2023-04-15T08:56:07.068Z,2.60
2023-04-15T08:58:38.564Z,3.03
2023-04-15T09:01:10.234Z,3.25
2023-04-15T09:03:42.014Z,3.15
2023-04-15T09:06:13.781Z,3.17
2023-04-15T09:08:45.220Z,3.40
2023-04-15T09:11:17.839Z,3.05
2023-04-15T09:13:50.890Z,3.38
2023-04-15T09:16:22.891Z,2.97
2023-04-15T09:18:54.383Z,2.90
2023-04-15T09:21:26.215Z,2.72
2023-04-15T09:23:57.678Z,3.10
2023-04-15T09:26:29.476Z,3.03
2023-04-15T09:29:01.114Z,2.85
2023-04-15T09:31:32.568Z,3.17
2023-04-15T09:34:04.564Z,3.25
2023-04-15T09:36:36.103Z,3.23
2023-04-15T09:39:07.839Z,3.20
2023-04-15T09:41:39.296Z,3.03
2023-04-15T09:44:11.179Z,3.95
2023-04-15T09:46:42.641Z,3.25
2023-04-15T09:49:14.462Z,2.85
2023-04-15T09:51:57.638Z,3.42
2023-04-15T09:54:33.095Z,3.72
2023-04-15T09:57:04.549Z,2.90
2023-04-15T09:59:36.357Z,3.35
2023-04-15T10:02:07.955Z,2.65
2023-04-15T10:04:39.536Z,3.25
2023-04-15T10:07:11.031Z,3.15
2023-04-15T10:09:42.892Z,2.83
2023-04-15T10:12:14.347Z,2.58
2023-04-15T10:14:46.159Z,3.55
2023-04-15T10:17:17.669Z,3.38
2023-04-15T10:19:49.424Z,3.03
2023-04-15T10:22:20.905Z,3.25
2023-04-15T10:24:52.374Z,3.20
2023-04-15T10:27:23.853Z,2.75
2023-04-15T10:29:55.663Z,2.50
2023-04-15T10:32:27.177Z,3.38
2023-04-15T10:34:58.682Z,2.67
2023-04-15T10:37:30.425Z,2.28
2023-04-15T10:40:02.059Z,2.20
2023-04-15T10:42:33.902Z,2.50
2023-04-15T10:45:05.338Z,2.63
2023-04-15T10:47:37.065Z,2.90
2023-04-15T10:50:08.572Z,2.80
2023-04-15T10:52:40.211Z,3.22
2023-04-15T10:55:11.667Z,2.53
2023-04-15T10:57:43.145Z,2.75
2023-04-15T11:00:14.666Z,3.08
2023-04-15T11:02:46.273Z,2.78
2023-04-15T11:05:17.864Z,2.70
2023-04-15T11:07:49.440Z,2.75
2023-04-15T11:10:20.902Z,2.05
2023-04-15T11:12:52.368Z,2.25
2023-04-15T11:15:23.809Z,3.50
2023-04-15T11:17:55.281Z,2.72
2023-04-15T11:20:26.780Z,2.35
2023-04-15T11:23:12.855Z,2.42
2023-04-15T11:25:46.870Z,2.90
2023-04-15T11:28:18.654Z,2.05
2023-04-15T11:30:50.122Z,2.63
2023-04-15T11:33:21.583Z,2.53
2023-04-15T11:35:53.027Z,2.70
2023-04-15T11:38:24.858Z,2.70
2023-04-15T11:40:56.298Z,2.67
2023-04-15T11:43:28.096Z,2.95
2023-04-15T11:45:59.616Z,2.50
2023-04-15T11:48:31.274Z,2.70
2023-04-15T11:51:02.730Z,2.42
2023-04-15T11:53:34.484Z,2.65
2023-04-15T11:56:05.932Z,2.28
2023-04-15T11:58:37.574Z,1.98
2023-04-15T12:01:10.377Z,2.92
2023-04-15T12:03:41.942Z,2.53
2023-04-15T12:06:13.700Z,2.47
2023-04-15T12:08:45.153Z,2.33
2023-04-15T12:11:16.659Z,2.28
2023-04-15T12:13:48.164Z,2.40
2023-04-15T12:16:20.013Z,2.60
2023-04-15T12:18:51.525Z,2.28
2023-04-15T12:21:23.514Z,2.40
2023-04-15T12:23:54.972Z,2.40
2023-04-15T12:26:26.762Z,2.22
2023-04-15T12:28:58.195Z,2.08
2023-04-15T12:31:29.990Z,2.80
2023-04-15T12:34:01.482Z,2.33
2023-04-15T12:36:33.211Z,2.17
2023-04-15T12:39:04.668Z,2.55
2023-04-15T12:41:36.357Z,2.63
2023-04-15T12:44:07.806Z,2.20
2023-04-15T12:46:39.767Z,2.10
2023-04-15T12:49:11.376Z,1.40
2023-04-15T12:51:43.039Z,1.88
2023-04-15T12:54:14.490Z,1.88
2023-04-15T12:56:46.312Z,1.92
2023-04-15T12:59:17.793Z,2.45
2023-04-15T13:01:49.549Z,2.28
2023-04-15T13:04:21.167Z,1.90
2023-04-15T13:06:52.797Z,1.60
2023-04-15T13:09:24.271Z,1.92
2023-04-15T13:11:55.744Z,1.70
2023-04-15T13:14:27.203Z,2.17
2023-04-15T13:16:58.992Z,2.08
2023-04-15T13:19:30.506Z,2.13
2023-04-15T13:22:01.959Z,2.00
2023-04-15T13:24:33.464Z,1.80
2023-04-15T13:27:05.246Z,2.00
2023-04-15T13:29:36.727Z,1.92
2023-04-15T13:32:08.479Z,2.35
2023-04-15T13:34:39.922Z,2.05
2023-04-15T13:37:11.749Z,1.80
2023-04-15T13:39:43.213Z,1.90
2023-04-15T13:42:15.126Z,1.58
2023-04-15T13:44:46.789Z,1.92
2023-04-15T13:47:18.282Z,1.67
2023-04-15T13:49:49.804Z,1.85
2023-04-15T13:52:21.251Z,2.05
2023-04-15T13:55:18.199Z,1.70
2023-04-15T13:57:44.160Z,1.67
2023-04-15T14:00:16.482Z,1.57
2023-04-15T14:02:48.045Z,1.58
2023-04-15T14:05:20.126Z,1.80
2023-04-15T14:07:51.590Z,1.87
2023-04-15T14:10:23.313Z,2.30
2023-04-15T14:12:54.755Z,1.63
2023-04-15T14:15:26.553Z,1.90
2023-04-15T14:17:58.138Z,1.88
2023-04-15T14:20:29.933Z,1.92
2023-04-15T14:23:01.370Z,1.52
2023-04-15T14:25:34.120Z,1.60
2023-04-15T14:30:37.657Z,1.70
2023-04-15T14:33:09.130Z,1.58
2023-04-15T14:35:41.023Z,1.58
2023-04-15T14:38:12.527Z,2.00
2023-04-15T14:40:44.313Z,1.85
2023-04-15T14:43:15.772Z,1.40
2023-04-15T14:45:47.629Z,2.22
2023-04-15T14:48:19.109Z,1.90
2023-04-15T14:50:50.605Z,1.90
2023-04-15T14:53:22.060Z,1.95
2023-04-15T14:55:53.528Z,2.08
2023-04-15T14:58:25.008Z,1.38
2023-04-15T15:00:56.499Z,1.92
2023-04-15T15:03:28.102Z,1.73
2023-04-15T15:05:59.971Z,1.55
2023-04-15T15:08:31.406Z,1.92
2023-04-15T15:11:03.393Z,2.05
2023-04-15T15:13:34.903Z,2.07
2023-04-15T15:16:06.784Z,2.33
2023-04-15T15:18:38.367Z,1.95
2023-04-15T15:21:10.200Z,2.10
2023-04-15T15:23:41.654Z,2.45
2023-04-15T15:26:13.577Z,2.35
2023-04-15T15:28:45.040Z,1.65
2023-04-15T15:31:17.114Z,2.03
2023-04-15T15:33:48.638Z,2.53
2023-04-15T15:36:20.430Z,1.90
2023-04-15T15:38:51.892Z,1.83
2023-04-15T15:41:23.651Z,2.10
2023-04-15T15:43:55.131Z,1.70
2023-04-15T15:46:26.844Z,1.92
2023-04-15T15:48:58.311Z,1.23
2023-04-15T15:51:29.996Z,2.28
2023-04-15T15:54:01.430Z,2.05
2023-04-15T15:56:33.255Z,1.60
2023-04-15T15:59:04.813Z,2.28
2023-04-15T16:01:36.698Z,1.75
2023-04-15T16:04:08.406Z,2.20
2023-04-15T16:06:40.162Z,1.80
2023-04-15T16:09:12.005Z,1.55
2023-04-15T16:11:43.456Z,1.55
2023-04-15T16:14:15.232Z,1.50
2023-04-15T16:16:46.713Z,1.88
2023-04-15T16:19:18.549Z,1.90
2023-04-15T16:21:50.401Z,1.85
2023-04-15T16:24:22.122Z,2.03
2023-04-15T16:26:53.584Z,1.83
2023-04-15T16:29:25.401Z,1.40
2023-04-15T16:31:56.925Z,1.48
2023-04-15T16:34:28.891Z,1.15
2023-04-15T16:37:00.350Z,1.40
2023-04-15T16:39:32.156Z,1.38
2023-04-15T16:42:03.692Z,1.83
2023-04-15T16:44:35.466Z,1.38
2023-04-15T16:47:06.978Z,1.25
2023-04-15T16:49:38.716Z,1.50
2023-04-15T16:52:10.171Z,1.40
2023-04-15T16:54:41.935Z,1.60
2023-04-15T16:57:13.424Z,1.60
2023-04-15T16:59:45.247Z,1.30
2023-04-15T17:02:16.854Z,1.55
2023-04-15T17:04:48.761Z,1.50
2023-04-15T17:07:20.216Z,1.88
2023-04-15T17:09:53.282Z,1.60
2023-04-15T17:12:25.905Z,1.60
2023-04-15T17:14:57.864Z,1.55
2023-04-15T17:17:29.421Z,1.53
2023-04-15T17:20:01.532Z,1.80
2023-04-15T17:22:32.982Z,1.53
2023-04-15T17:25:04.884Z,1.42
2023-04-15T17:27:36.366Z,1.80
2023-04-15T17:30:08.228Z,1.60
2023-04-15T17:32:40.239Z,1.40
2023-04-15T17:35:11.838Z,2.00
2023-04-15T17:37:43.470Z,1.48
2023-04-15T17:40:15.393Z,1.52
2023-04-15T17:42:46.883Z,1.83
2023-04-15T17:45:18.347Z,1.58
2023-04-15T17:47:49.907Z,2.22
2023-04-15T17:50:21.685Z,1.50
2023-04-15T17:52:53.118Z,2.05
2023-04-15T17:55:25.113Z,2.20
2023-04-15T17:57:56.618Z,1.50
2023-04-15T18:00:28.101Z,1.85
2023-04-15T18:03:02.245Z,1.70
2023-04-15T18:05:33.858Z,1.70
2023-04-15T18:08:05.497Z,1.52
2023-04-15T18:10:36.986Z,1.40
2023-04-15T18:13:08.910Z,1.77
2023-04-15T18:15:40.379Z,1.48
2023-04-15T18:18:11.894Z,1.90
2023-04-15T18:20:43.385Z,1.80
2023-04-15T18:23:15.026Z,2.30
2023-04-15T18:25:46.672Z,2.08
2023-04-15T18:28:18.145Z,1.88
2023-04-15T18:30:49.615Z,1.50
2023-04-15T18:33:21.483Z,1.75
2023-04-15T18:35:52.947Z,1.33
2023-04-15T18:38:24.860Z,1.65
2023-04-15T18:40:56.505Z,1.77
2023-04-15T18:43:28.376Z,1.92
2023-04-15T18:46:00.254Z,2.00
2023-04-15T18:48:32.329Z,2.10
2023-04-15T18:51:03.785Z,1.80
2023-04-15T18:53:35.633Z,2.00
2023-04-15T18:56:07.101Z,2.30
2023-04-15T18:59:26.981Z,2.17
2023-04-15T19:01:30.295Z,2.00
2023-04-15T19:04:02.343Z,1.95
2023-04-15T19:06:33.866Z,1.77
2023-04-15T19:09:05.824Z,2.20
2023-04-15T19:11:37.495Z,2.70
2023-04-15T19:14:08.955Z,1.90
2023-04-15T19:16:40.470Z,2.05
2023-04-15T19:19:12.443Z,2.30
2023-04-15T19:21:43.917Z,2.42
2023-04-15T19:24:15.917Z,2.30
2023-04-15T19:26:47.490Z,1.80
2023-04-15T19:29:19.302Z,2.20
2023-04-15T19:31:50.761Z,2.00
2023-04-15T19:34:22.640Z,2.38
2023-04-15T19:36:54.119Z,1.95
2023-04-15T19:39:25.877Z,1.95
2023-04-15T19:41:57.331Z,1.70
2023-04-15T19:44:29.212Z,1.38
2023-04-15T19:47:00.690Z,1.85
2023-04-15T19:49:32.514Z,2.08
2023-04-15T19:52:03.958Z,1.70
2023-04-15T19:54:35.598Z,2.05
2023-04-15T19:57:07.349Z,2.13
2023-04-15T19:59:38.806Z,1.58
2023-04-15T20:02:10.748Z,1.90
2023-04-15T20:04:42.329Z,1.73
2023-04-15T20:07:14.093Z,1.98
2023-04-15T20:09:45.557Z,2.17
2023-04-15T20:12:51.328Z,2.15
2023-04-15T20:15:08.694Z,3.13
2023-04-15T20:17:40.469Z,3.10
2023-04-15T20:20:12.019Z,2.40
2023-04-15T20:22:43.845Z,2.13
2023-04-15T20:25:15.295Z,2.60
2023-04-15T20:27:47.311Z,2.35
2023-04-15T20:30:18.784Z,2.47
2023-04-15T20:32:50.322Z,3.03
2023-04-15T20:35:21.873Z,1.95
2023-04-15T20:37:53.358Z,2.30
2023-04-15T20:40:24.820Z,2.90
2023-04-15T20:42:56.300Z,2.78
2023-04-15T20:45:27.803Z,2.78
2023-04-15T20:47:59.599Z,2.85
2023-04-15T20:50:31.067Z,3.15
2023-04-15T20:53:02.904Z,2.95
2023-04-15T20:55:34.362Z,2.53
2023-04-15T20:58:06.181Z,2.97
2023-04-15T21:00:37.722Z,2.92
2023-04-15T21:03:09.652Z,2.95
2023-04-15T21:05:41.302Z,2.93
2023-04-15T21:08:13.069Z,3.05
2023-04-15T21:10:44.511Z,2.75
2023-04-15T21:13:16.474Z,2.70
2023-04-15T21:15:47.942Z,2.27
2023-04-15T21:18:19.468Z,3.28
2023-04-15T21:20:50.944Z,2.92
2023-04-15T21:23:22.885Z,2.95
2023-04-15T21:25:54.368Z,3.60
2023-04-15T21:28:26.112Z,3.08
2023-04-15T21:30:57.605Z,2.60
2023-04-15T21:33:29.252Z,2.92
2023-04-15T21:36:00.698Z,3.33
2023-04-15T21:38:32.159Z,2.72
2023-04-15T21:41:03.756Z,3.28
2023-04-15T21:43:35.508Z,2.97
2023-04-15T21:46:23.259Z,3.22
2023-04-15T21:48:55.355Z,2.80
2023-04-15T21:51:26.808Z,3.20
2023-04-15T21:53:58.288Z,3.03
2023-04-15T21:56:29.966Z,5.28
2023-04-15T21:59:01.544Z,3.50
2023-04-15T22:01:33.429Z,3.60
2023-04-15T22:04:05.079Z,3.47
2023-04-15T22:06:36.803Z,3.38
2023-04-15T22:09:08.262Z,4.15
2023-04-15T22:11:40.066Z,3.47
2023-04-15T22:14:11.544Z,3.00
2023-04-15T22:16:43.355Z,3.78
2023-04-15T22:19:14.838Z,3.78
2023-04-15T22:21:46.610Z,3.05
2023-04-15T22:24:38.309Z,3.42
2023-04-15T22:27:09.712Z,3.50
2023-04-15T22:29:41.207Z,4.13
2023-04-15T22:32:12.918Z,3.92
2023-04-15T22:34:44.374Z,2.92
2023-04-15T22:37:16.130Z,4.05
2023-04-15T22:39:47.974Z,3.42
2023-04-15T22:42:19.456Z,3.47
2023-04-15T22:44:50.999Z,3.53
2023-04-15T22:47:22.546Z,3.47
2023-04-15T22:49:54.078Z,3.30
2023-04-15T22:52:30.402Z,3.53
2023-04-15T22:55:03.353Z,3.10
2023-04-15T22:57:34.805Z,3.13
2023-04-15T23:00:06.583Z,3.38
2023-04-15T23:02:38.152Z,3.28
2023-04-15T23:05:12.394Z,3.30
2023-04-15T23:07:44.768Z,2.85
2023-04-15T23:10:16.609Z,3.42
2023-04-15T23:12:48.079Z,3.15
2023-04-15T23:15:19.896Z,3.20
2023-04-15T23:17:51.426Z,2.60
2023-04-15T23:20:23.228Z,3.40
2023-04-15T23:22:54.706Z,2.67
2023-04-15T23:25:26.534Z,3.10
2023-04-15T23:27:58.020Z,3.28
2023-04-15T23:30:30.021Z,3.33
2023-04-15T23:33:01.554Z,3.30
2023-04-15T23:35:33.368Z,3.22
2023-04-15T23:38:04.815Z,3.60
2023-04-15T23:40:36.622Z,3.55
2023-04-15T23:43:08.058Z,3.75
2023-04-15T23:45:39.855Z,3.40
2023-04-15T23:48:11.320Z,3.08
2023-04-15T23:50:43.246Z,3.17
2023-04-15T23:53:14.682Z,3.78
2023-04-15T23:55:46.294Z,3.85
2023-04-15T23:58:17.773Z,3.50
